createdAt,value
2023-02-24T00:02:01.527Z,100243.19
2023-02-24T00:04:31.616Z,100242.28
2023-02-24T00:06:59.800Z,100243.09
2023-02-24T00:09:28.615Z,100237.06
2023-02-24T00:12:09.175Z,100230.09
2023-02-24T00:14:38.089Z,100229.25
2023-02-24T00:17:08.147Z,100216.25
2023-02-24T00:19:34.977Z,100220.63
2023-02-24T00:22:02.864Z,100216.25
2023-02-24T00:24:29.751Z,100212.75
2023-02-24T00:26:59.518Z,100212.75
2023-02-24T00:29:28.122Z,100216.25
2023-02-24T00:31:59.430Z,100206.47
2023-02-24T00:34:30.848Z,100194.91
2023-02-24T00:36:58.402Z,100206.00
2023-02-24T00:39:33.507Z,100208.28
2023-02-24T00:42:04.873Z,100207.13
2023-02-24T00:44:45.281Z,100207.75
2023-02-24T00:47:12.759Z,100200.44
2023-02-24T00:49:42.489Z,100201.97
2023-02-24T00:52:18.486Z,100190.41
2023-02-24T00:54:49.246Z,100185.97
2023-02-24T00:57:18.513Z,100186.84
2023-02-24T00:59:48.182Z,100176.47
2023-02-24T01:02:16.029Z,100173.84
2023-02-24T01:04:44.727Z,100168.50
2023-02-24T01:07:13.509Z,100172.72
2023-02-24T01:09:41.625Z,100158.69
2023-02-24T01:12:38.385Z,100168.19
2023-02-24T01:15:09.157Z,100170.78
2023-02-24T01:17:37.695Z,100157.53
2023-02-24T01:20:19.696Z,100154.00
2023-02-24T01:22:49.589Z,100156.63
2023-02-24T01:25:16.614Z,100149.75
2023-02-24T01:27:43.200Z,100142.91
2023-02-24T01:30:15.613Z,100138.63
2023-02-24T01:32:43.848Z,100139.56
2023-02-24T01:35:12.021Z,100142.31
2023-02-24T01:37:39.274Z,100145.09
2023-02-24T01:40:11.912Z,100135.53
2023-02-24T01:42:41.808Z,100133.84
2023-02-24T01:45:17.157Z,100139.09
2023-02-24T01:47:47.559Z,100134.72
2023-02-24T01:50:17.401Z,100126.84
2023-02-24T01:52:47.831Z,100126.91
2023-02-24T01:55:20.198Z,100126.03
2023-02-24T01:57:48.973Z,100119.91
2023-02-24T02:00:37.158Z,100119.91
2023-02-24T02:03:20.106Z,100111.13
2023-02-24T02:05:51.656Z,100117.22
2023-02-24T02:08:21.367Z,100112.00
2023-02-24T02:10:47.975Z,100103.28
2023-02-24T02:13:21.050Z,100109.41
2023-02-24T02:16:01.093Z,100092.75
2023-02-24T02:18:38.290Z,100092.75
2023-02-24T02:21:45.060Z,100085.75
2023-02-24T02:24:30.218Z,100086.59
2023-02-24T02:27:20.883Z,100090.03
2023-02-24T02:29:51.042Z,100083.00
2023-02-24T02:32:57.823Z,100076.84
2023-02-24T02:35:49.714Z,100080.38
2023-02-24T02:38:34.636Z,100069.81
2023-02-24T02:41:17.203Z,100061.94
2023-02-24T02:44:22.787Z,100058.53
2023-02-24T02:47:00.458Z,100057.63
2023-02-24T02:49:34.814Z,100061.03
2023-02-24T02:52:07.594Z,100054.00
2023-02-24T02:54:45.401Z,100051.34
2023-02-24T02:57:20.474Z,100057.50
2023-02-24T02:59:56.197Z,100044.41
2023-02-24T03:02:28.488Z,100043.53
2023-02-24T03:05:01.979Z,100041.81
2023-02-24T03:07:35.105Z,100041.81
2023-02-24T03:10:10.804Z,100033.88
2023-02-24T03:12:40.838Z,100044.34
2023-02-24T03:15:10.866Z,100035.56
2023-02-24T03:17:41.588Z,100033.78
2023-02-24T03:20:20.117Z,100025.00
2023-02-24T03:22:52.876Z,100017.97
2023-02-24T03:25:25.218Z,100015.38
2023-02-24T03:28:01.595Z,100017.09
2023-02-24T03:30:38.500Z,100010.97
2023-02-24T03:33:19.945Z,100001.28
2023-02-24T03:35:51.096Z,100003.94
2023-02-24T03:38:19.910Z,100002.22
2023-02-24T03:40:46.623Z,99996.97
2023-02-24T03:43:26.134Z,99996.94
2023-02-24T03:45:55.701Z,99993.47
2023-02-24T03:48:25.150Z,99992.59
2023-02-24T03:50:53.131Z,99981.25
2023-02-24T03:54:09.581Z,99967.22
2023-02-24T03:56:50.577Z,99963.66
2023-02-24T03:59:34.099Z,99967.97
2023-02-24T04:02:14.499Z,99969.72
2023-02-24T04:05:13.719Z,99961.88
2023-02-24T04:08:07.563Z,99958.44
2023-02-24T04:10:41.512Z,99954.97
2023-02-24T04:13:28.417Z,99956.72
2023-02-24T04:16:17.086Z,99947.06
2023-02-24T04:18:49.534Z,99949.75
2023-02-24T04:21:20.303Z,99941.03
2023-02-24T04:23:47.985Z,99941.88
2023-02-24T04:26:17.672Z,99934.81
2023-02-24T04:28:48.500Z,99936.53
2023-02-24T04:31:18.488Z,99934.78
2023-02-24T04:33:50.439Z,99935.63
2023-02-24T04:36:21.573Z,99931.19
2023-02-24T04:38:48.805Z,99925.94
2023-02-24T04:41:23.113Z,99923.31
2023-02-24T04:43:53.649Z,99919.72
2023-02-24T04:46:20.339Z,99929.28
2023-02-24T04:48:46.974Z,99921.34
2023-02-24T04:51:14.547Z,99914.34
2023-02-24T04:53:41.027Z,99918.66
2023-02-24T04:56:11.156Z,99905.53
2023-02-24T04:58:39.775Z,99897.66
2023-02-24T05:01:10.208Z,99897.59
2023-02-24T05:03:38.618Z,99890.63
2023-02-24T05:06:06.568Z,99885.34
2023-02-24T05:08:33.943Z,99893.16
2023-02-24T05:11:03.820Z,99883.59
2023-02-24T05:13:31.915Z,99883.59
2023-02-24T05:16:04.495Z,99878.31
2023-02-24T05:18:37.203Z,99874.81
2023-02-24T05:21:30.403Z,99874.78
2023-02-24T05:23:59.411Z,99875.59
2023-02-24T05:26:27.505Z,99868.56
2023-02-24T05:28:56.673Z,99869.31
2023-02-24T05:31:29.037Z,99861.44
2023-02-24T05:34:02.718Z,99855.31
2023-02-24T05:36:33.319Z,99848.25
2023-02-24T05:39:06.726Z,99844.66
2023-02-24T05:41:38.816Z,99840.28
2023-02-24T05:44:12.092Z,99829.78
2023-02-24T05:46:41.291Z,99824.47
2023-02-24T05:49:14.313Z,99824.47
2023-02-24T05:51:43.435Z,99822.69
2023-02-24T05:54:13.081Z,99818.38
2023-02-24T05:56:43.744Z,99808.75
2023-02-24T05:59:12.448Z,99807.88
2023-02-24T06:01:47.313Z,99804.38
2023-02-24T06:04:21.044Z,99801.78
2023-02-24T06:06:55.121Z,99795.59
2023-02-24T06:09:23.448Z,99794.78
2023-02-24T06:11:50.306Z,99793.84
2023-02-24T06:14:17.020Z,99789.47
2023-02-24T06:16:43.712Z,99775.88
2023-02-24T06:19:13.455Z,99777.94
2023-02-24T06:21:41.647Z,99775.59
2023-02-24T06:24:18.482Z,99763.69
2023-02-24T06:26:46.440Z,99771.75
2023-02-24T06:29:15.078Z,99766.56
2023-02-24T06:31:43.223Z,99763.09
2023-02-24T06:34:11.165Z,99764.69
2023-02-24T06:36:38.193Z,99757.56
2023-02-24T06:39:08.120Z,99752.22
2023-02-24T06:41:40.683Z,99742.50
2023-02-24T06:44:07.312Z,99739.81
2023-02-24T06:46:33.840Z,99739.81
2023-02-24T06:49:00.324Z,99732.81
2023-02-24T06:51:30.145Z,99738.94
2023-02-24T06:53:59.387Z,99733.69
2023-02-24T06:56:27.051Z,99725.88
2023-02-24T06:58:55.853Z,99727.56
2023-02-24T07:01:25.984Z,99716.19
2023-02-24T07:04:00.514Z,99717.97
2023-02-24T07:06:29.745Z,99711.81
2023-02-24T07:08:58.528Z,99706.66
2023-02-24T07:11:25.893Z,99704.03
2023-02-24T07:13:54.509Z,99705.78
2023-02-24T07:16:26.039Z,99701.44
2023-02-24T07:18:56.968Z,99698.00
2023-02-24T07:21:25.979Z,99699.75
2023-02-24T07:23:58.932Z,99686.75
2023-02-24T07:26:27.922Z,99687.69
2023-02-24T07:28:56.656Z,99679.84
2023-02-24T07:31:26.011Z,99683.31
2023-02-24T07:34:02.010Z,99682.50
2023-02-24T07:36:38.746Z,99670.34
2023-02-24T07:39:08.107Z,99677.31
2023-02-24T07:41:34.992Z,99673.91
2023-02-24T07:44:03.416Z,99670.44
2023-02-24T07:46:30.374Z,99667.91
2023-02-24T07:48:59.856Z,99661.81
2023-02-24T07:51:28.065Z,99654.88
2023-02-24T07:53:58.833Z,99647.06
2023-02-24T07:56:27.591Z,99651.50
2023-02-24T07:59:00.241Z,99643.63
2023-02-24T08:01:38.811Z,99627.91
2023-02-24T08:04:12.493Z,99627.94
2023-02-24T08:06:46.122Z,99626.31
2023-02-24T08:09:16.838Z,99616.72
2023-02-24T08:11:46.233Z,99622.81
2023-02-24T08:14:14.108Z,99611.53
2023-02-24T08:16:44.755Z,99610.69
2023-02-24T08:19:20.887Z,99611.53
2023-02-24T08:21:51.509Z,99600.22
2023-02-24T08:24:25.301Z,99596.84
2023-02-24T08:27:06.388Z,99591.63
2023-02-24T08:29:40.318Z,99586.47
2023-02-24T08:32:09.417Z,99578.66
2023-02-24T08:34:37.430Z,99577.81
2023-02-24T08:37:05.164Z,99580.47
2023-02-24T08:39:36.437Z,99571.78
2023-02-24T08:42:03.367Z,99572.69
2023-02-24T08:44:29.886Z,99570.91
2023-02-24T08:46:56.481Z,99568.31
2023-02-24T08:49:28.409Z,99559.66
2023-02-24T08:51:54.919Z,99558.22
2023-02-24T08:54:27.280Z,99546.06
2023-02-24T08:56:56.209Z,99538.38
2023-02-24T08:59:38.552Z,99539.28
2023-02-24T09:02:24.457Z,99530.56
2023-02-24T09:05:00.127Z,99534.09
2023-02-24T09:07:35.530Z,99527.00
2023-02-24T09:10:11.455Z,99528.66
2023-02-24T09:12:41.281Z,99532.03
2023-02-24T09:15:10.187Z,99517.06
2023-02-24T09:17:45.953Z,99527.41
2023-02-24T09:20:28.195Z,99526.38
2023-02-24T09:23:08.808Z,99517.56
2023-02-24T09:25:41.685Z,99518.44
2023-02-24T09:28:16.960Z,99514.00
2023-02-24T09:31:04.905Z,99512.00
2023-02-24T09:33:41.636Z,99505.78
2023-02-24T09:36:13.755Z,99499.47
2023-02-24T09:39:00.877Z,99506.28
2023-02-24T09:42:03.863Z,99493.00
2023-02-24T09:44:41.016Z,99493.78
2023-02-24T09:47:31.561Z,99495.25
2023-02-24T09:50:04.537Z,99486.19
2023-02-24T09:52:41.359Z,99484.50
2023-02-24T09:55:38.904Z,99484.34
2023-02-24T09:58:43.056Z,99470.38
2023-02-24T10:01:23.341Z,99468.72
2023-02-24T10:04:28.948Z,99473.97
2023-02-24T10:07:06.565Z,99463.50
2023-02-24T10:09:43.378Z,99455.63
2023-02-24T10:12:20.225Z,99452.19
2023-02-24T10:15:20.493Z,99441.72
2023-02-24T10:17:56.513Z,99440.94
2023-02-24T10:20:39.362Z,99442.88
2023-02-24T10:23:12.377Z,99431.56
2023-02-24T10:25:42.453Z,99425.59
2023-02-24T10:28:39.925Z,99423.16
2023-02-24T10:31:26.764Z,99415.28
2023-02-24T10:34:07.068Z,99415.34
2023-02-24T10:36:37.925Z,99409.28
2023-02-24T10:39:15.721Z,99404.09
2023-02-24T10:41:57.316Z,99404.19
2023-02-24T10:44:27.294Z,99400.72
2023-02-24T10:47:13.119Z,99395.53
2023-02-24T10:49:57.023Z,99392.06
2023-02-24T10:52:45.366Z,99386.72
2023-02-24T10:55:40.380Z,99381.47
2023-02-24T10:58:07.635Z,99373.59
2023-02-24T11:01:07.455Z,99367.47
2023-02-24T11:03:42.355Z,99356.84
2023-02-24T11:06:43.491Z,99353.16
2023-02-24T11:09:32.200Z,99347.84
2023-02-24T11:12:31.292Z,99346.00
2023-02-24T11:15:20.774Z,99340.91
2023-02-24T11:17:54.993Z,99334.94
2023-02-24T11:20:49.527Z,99327.28
2023-02-24T11:23:22.282Z,99311.53
2023-02-24T11:25:55.416Z,99311.50
2023-02-24T11:28:41.818Z,99305.47
2023-02-24T11:31:26.454Z,99285.34
2023-02-24T11:34:30.838Z,99276.59
2023-02-24T11:37:16.803Z,99273.94
2023-02-24T11:39:46.033Z,99266.06
2023-02-24T11:42:16.518Z,99272.94
2023-02-24T11:44:53.504Z,99262.38
2023-02-24T11:47:31.187Z,99249.34
2023-02-24T11:50:08.693Z,99251.00
2023-02-24T11:52:40.925Z,99230.13
2023-02-24T11:55:23.235Z,99228.34
2023-02-24T11:57:54.626Z,99223.00
2023-02-24T12:00:24.791Z,99217.63
2023-02-24T12:03:13.013Z,99202.91
2023-02-24T12:05:52.574Z,99204.81
2023-02-24T12:08:28.392Z,99202.38
2023-02-24T12:11:16.479Z,99191.94
2023-02-24T12:13:52.680Z,99192.91
2023-02-24T12:16:28.869Z,99176.38
2023-02-24T12:19:04.420Z,99182.34
2023-02-24T12:21:39.467Z,99174.44
2023-02-24T12:24:12.336Z,99167.44
2023-02-24T12:27:09.325Z,99168.25
2023-02-24T12:29:48.588Z,99172.56
2023-02-24T12:32:41.525Z,99164.72
2023-02-24T12:35:59.505Z,99169.00
2023-02-24T12:38:50.654Z,99156.69
2023-02-24T12:41:32.287Z,99159.28
2023-02-24T12:44:26.728Z,99167.03
2023-02-24T12:47:06.527Z,99149.50
2023-02-24T12:49:43.098Z,99152.97
2023-02-24T12:52:12.737Z,99157.28
2023-02-24T12:54:55.021Z,99147.59
2023-02-24T12:57:41.389Z,99141.44
2023-02-24T13:00:17.983Z,99139.66
2023-02-24T13:03:00.180Z,99133.47
2023-02-24T13:05:37.690Z,99124.72
2023-02-24T13:08:31.692Z,99129.88
2023-02-24T13:10:58.188Z,99119.47
2023-02-24T13:13:28.099Z,99117.75
2023-02-24T13:15:57.550Z,99108.09
2023-02-24T13:18:33.345Z,99104.66
2023-02-24T13:21:24.744Z,99101.28
2023-02-24T13:24:01.043Z,99096.97
2023-02-24T13:26:30.837Z,99084.81
2023-02-24T13:29:13.497Z,99073.47
2023-02-24T13:31:45.871Z,99075.19
2023-02-24T13:34:30.754Z,99068.25
2023-02-24T13:36:57.649Z,99062.16
2023-02-24T13:39:35.127Z,99053.47
2023-02-24T13:42:19.938Z,99054.31
2023-02-24T13:45:06.787Z,99056.09
2023-02-24T13:47:45.572Z,99057.78
2023-02-24T13:50:33.890Z,99047.22
2023-02-24T13:53:29.485Z,99043.72
2023-02-24T13:56:20.161Z,99038.38
2023-02-24T13:58:55.790Z,99031.38
2023-02-24T14:01:25.724Z,99033.06
2023-02-24T14:04:22.648Z,99030.41
2023-02-24T14:06:53.890Z,99025.97
2023-02-24T14:09:27.033Z,99027.66
2023-02-24T14:12:30.575Z,99027.63
2023-02-24T14:14:57.193Z,99013.63
2023-02-24T14:17:34.138Z,99009.28
2023-02-24T14:20:06.669Z,99011.88
2023-02-24T14:22:34.735Z,99018.00
2023-02-24T14:25:02.696Z,99005.81
2023-02-24T14:27:29.354Z,99002.34
2023-02-24T14:29:56.054Z,98995.41
2023-02-24T14:32:25.617Z,98992.84
2023-02-24T14:34:53.468Z,98985.94
2023-02-24T14:37:26.608Z,98986.00
2023-02-24T14:39:55.199Z,98997.41
2023-02-24T14:42:22.135Z,98977.41
2023-02-24T14:44:54.302Z,98984.41
2023-02-24T14:47:23.218Z,98967.03
2023-02-24T14:50:03.181Z,98964.50
2023-02-24T14:52:39.620Z,98961.03
2023-02-24T14:55:16.521Z,98952.38
2023-02-24T14:57:50.824Z,98959.41
2023-02-24T15:00:24.172Z,98947.28
2023-02-24T15:03:04.940Z,98948.19
2023-02-24T15:05:31.813Z,98951.78
2023-02-24T15:08:00.847Z,98935.31
2023-02-24T15:10:30.298Z,98941.44
2023-02-24T15:13:26.297Z,98937.94
2023-02-24T15:15:53.048Z,98925.78
2023-02-24T15:18:29.182Z,98923.22
2023-02-24T15:21:04.658Z,98916.22
2023-02-24T15:23:36.820Z,98919.75
2023-02-24T15:26:08.636Z,98911.03
2023-02-24T15:28:37.066Z,98911.94
2023-02-24T15:31:15.881Z,98917.13
2023-02-24T15:33:45.581Z,98904.84
2023-02-24T15:36:18.391Z,98896.94
2023-02-24T15:38:45.810Z,98902.13
2023-02-24T15:41:16.046Z,98891.66
2023-02-24T15:43:52.725Z,98895.16
2023-02-24T15:46:19.423Z,98905.56
2023-02-24T15:48:48.385Z,98895.06
2023-02-24T15:51:29.070Z,98885.47
2023-02-24T15:53:55.624Z,98881.16
2023-02-24T15:56:23.046Z,98884.69
2023-02-24T15:58:49.972Z,98878.56
2023-02-24T16:01:16.528Z,98872.50
2023-02-24T16:03:43.192Z,98870.78
2023-02-24T16:06:28.733Z,98861.22
2023-02-24T16:08:57.056Z,98863.03
2023-02-24T16:11:27.969Z,98865.69
2023-02-24T16:14:00.041Z,98843.91
2023-02-24T16:16:27.229Z,98838.72
2023-02-24T16:18:54.345Z,98841.34
2023-02-24T16:21:20.883Z,98847.50
2023-02-24T16:23:47.585Z,98842.28
2023-02-24T16:26:17.520Z,98837.94
2023-02-24T16:28:55.614Z,98837.91
2023-02-24T16:31:26.555Z,98844.88
2023-02-24T16:33:55.754Z,98836.16
2023-02-24T16:36:25.338Z,98819.53
2023-02-24T16:38:52.358Z,98824.78
2023-02-24T16:41:19.049Z,98838.75
2023-02-24T16:46:47.762Z,98833.50
2023-02-24T16:49:18.990Z,98838.72
2023-02-24T16:51:45.943Z,98831.72
2023-02-24T16:54:12.429Z,98830.81
2023-02-24T16:56:38.933Z,98834.34
2023-02-24T16:59:05.543Z,98837.84
2023-02-24T17:01:32.329Z,98830.84
2023-02-24T17:03:59.041Z,98835.22
2023-02-24T17:06:26.129Z,98825.66
2023-02-24T17:08:52.857Z,98829.13
2023-02-24T17:11:20.972Z,98837.03
2023-02-24T17:13:47.768Z,98817.81
2023-02-24T17:16:14.409Z,98819.59
2023-02-24T17:18:40.856Z,98814.34
2023-02-24T17:21:07.447Z,98814.31
2023-02-24T17:23:33.940Z,98808.22
2023-02-24T17:26:02.196Z,98816.09
2023-02-24T17:28:29.346Z,98811.69
2023-02-24T17:30:56.261Z,98810.88
2023-02-24T17:33:22.888Z,98809.16
2023-02-24T17:35:49.419Z,98806.53
2023-02-24T17:38:18.420Z,98795.22
2023-02-24T17:40:45.803Z,98801.31
2023-02-24T17:43:15.132Z,98795.22
2023-02-24T17:45:44.839Z,98796.97
2023-02-24T17:48:12.870Z,98799.56
2023-02-24T17:50:45.677Z,98796.06
2023-02-24T17:53:12.499Z,98793.44
2023-02-24T17:55:40.394Z,98778.63
2023-02-24T17:58:09.640Z,98785.59
2023-02-24T18:00:36.216Z,98781.25
2023-02-24T18:03:03.639Z,98783.88
2023-02-24T18:05:30.203Z,98776.91
2023-02-24T18:07:59.894Z,98786.50
2023-02-24T18:10:27.278Z,98771.66
2023-02-24T18:12:53.885Z,98774.28
2023-02-24T18:15:20.473Z,98772.56
2023-02-24T18:17:46.991Z,98774.28
2023-02-24T18:20:14.161Z,98790.88
2023-02-24T18:22:40.620Z,98787.38
2023-02-24T18:25:07.516Z,98773.41
2023-02-24T18:27:34.061Z,98766.41
2023-02-24T18:30:00.519Z,98769.88
2023-02-24T18:32:27.389Z,98784.75
2023-02-24T18:34:54.423Z,98782.13
2023-02-24T18:37:22.087Z,98782.97
2023-02-24T18:39:48.634Z,98781.22
2023-02-24T18:42:15.198Z,98780.34
2023-02-24T18:44:41.631Z,98798.66
2023-02-24T18:47:09.830Z,98793.41
2023-02-24T18:49:37.364Z,98786.41
2023-02-24T18:52:05.360Z,98783.78
2023-02-24T18:54:32.845Z,98779.44
2023-02-24T18:56:59.293Z,98776.84
2023-02-24T18:59:27.620Z,98783.78
2023-02-24T19:01:56.716Z,98792.53
2023-02-24T19:04:24.393Z,98789.91
2023-02-24T19:06:50.962Z,98785.56
2023-02-24T19:09:21.543Z,98782.94
2023-02-24T19:11:49.630Z,98784.69
2023-02-24T19:14:16.964Z,98783.78
2023-02-24T19:16:43.834Z,98774.22
2023-02-24T19:19:14.934Z,98782.91
2023-02-24T19:21:41.876Z,98775.94
2023-02-24T19:24:11.073Z,98763.72
2023-02-24T19:26:38.627Z,98776.81
2023-02-24T19:29:05.677Z,98776.81
2023-02-24T19:31:34.343Z,98772.44
2023-02-24T19:34:03.887Z,98764.59
2023-02-24T19:36:33.001Z,98765.47
2023-02-24T19:38:59.537Z,98770.72
2023-02-24T19:41:26.304Z,98772.47
2023-02-24T19:43:53.259Z,98778.63
2023-02-24T19:46:20.038Z,98769.03
2023-02-24T19:48:48.433Z,98773.38
2023-02-24T19:51:21.604Z,98790.81
2023-02-24T19:53:52.510Z,98786.41
2023-02-24T19:56:27.821Z,98775.03
2023-02-24T19:58:56.058Z,98775.84
2023-02-24T20:01:23.443Z,98777.56
2023-02-24T20:03:50.407Z,98775.75
2023-02-24T20:06:25.698Z,98780.94
2023-02-24T20:08:52.729Z,98780.94
2023-02-24T20:11:20.522Z,98781.81
2023-02-24T20:13:48.043Z,98787.06
2023-02-24T20:16:17.176Z,98781.75
2023-02-24T20:18:44.621Z,98789.69
2023-02-24T20:21:12.275Z,98784.50
2023-02-24T20:23:40.792Z,98792.44
2023-02-24T20:26:09.712Z,98789.00
2023-02-24T20:28:36.649Z,98789.03
2023-02-24T20:31:10.331Z,98791.69
2023-02-24T20:33:38.864Z,98792.53
2023-02-24T20:36:11.434Z,98797.69
2023-02-24T20:38:39.056Z,98799.44
2023-02-24T20:41:06.594Z,98786.34
2023-02-24T20:43:33.315Z,98794.19
2023-02-24T20:46:00.365Z,98796.81
2023-02-24T20:48:26.838Z,98794.25
2023-02-24T20:50:53.339Z,98800.38
2023-02-24T20:53:19.790Z,98797.81
2023-02-24T20:55:46.403Z,98788.22
2023-02-24T20:58:13.151Z,98794.34
2023-02-24T21:00:40.545Z,98784.75
2023-02-24T21:03:11.874Z,98781.31
2023-02-24T21:05:39.230Z,98782.19
2023-02-24T21:08:06.069Z,98794.41
2023-02-24T21:10:32.571Z,98795.28
2023-02-24T21:12:59.167Z,98780.44
2023-02-24T21:15:25.742Z,98789.19
2023-02-24T21:17:53.654Z,98774.34
2023-02-24T21:20:20.332Z,98781.38
2023-02-24T21:22:46.819Z,98774.34
2023-02-24T21:25:13.308Z,98770.00
2023-02-24T21:27:39.834Z,98773.50
2023-02-24T21:30:07.730Z,98790.06
2023-02-24T21:32:34.487Z,98764.78
2023-02-24T21:35:02.033Z,98776.13
2023-02-24T21:37:28.922Z,98775.25
2023-02-24T21:39:55.521Z,98776.97
2023-02-24T21:42:22.654Z,98776.97
2023-02-24T21:44:51.871Z,98791.81
2023-02-24T21:47:18.728Z,98790.88
2023-02-24T21:49:46.140Z,98780.34
2023-02-24T21:52:13.111Z,98788.13
2023-02-24T21:54:39.881Z,98791.63
2023-02-24T21:57:07.355Z,98776.75
2023-02-24T21:59:33.968Z,98792.44
2023-02-24T22:02:00.583Z,98790.66
2023-02-24T22:04:27.110Z,98785.41
2023-02-24T22:06:53.917Z,98785.38
2023-02-24T22:09:20.700Z,98794.09
2023-02-24T22:11:49.618Z,98774.91
2023-02-24T22:14:16.211Z,98779.22
2023-02-24T22:16:43.473Z,98785.34
2023-02-24T22:19:11.006Z,98781.81
2023-02-24T22:21:39.573Z,98786.19
2023-02-24T22:24:06.446Z,98777.47
2023-02-24T22:26:32.961Z,98792.31
2023-02-24T22:29:00.792Z,98786.22
2023-02-24T22:31:30.754Z,98787.06
2023-02-24T22:33:57.371Z,98786.19
2023-02-24T22:36:26.411Z,98795.81
2023-02-24T22:38:54.713Z,98788.84
2023-02-24T22:41:24.898Z,98793.19
2023-02-24T22:43:52.071Z,98799.31
2023-02-24T22:46:22.280Z,98788.84
2023-02-24T22:48:50.305Z,98790.59
2023-02-24T22:51:18.257Z,98777.50
2023-02-24T22:53:48.812Z,98782.75
2023-02-24T22:56:18.066Z,98760.97
2023-02-24T22:58:45.326Z,98781.84
2023-02-24T23:01:25.520Z,98767.91
2023-02-24T23:03:52.819Z,98779.22
2023-02-24T23:06:22.612Z,98777.50
2023-02-24T23:08:50.568Z,98770.53
2023-02-24T23:11:38.938Z,98767.94
2023-02-24T23:14:09.862Z,98772.28
2023-02-24T23:16:37.501Z,98761.84
2023-02-24T23:19:10.565Z,98774.91
2023-02-24T23:21:43.281Z,98767.91
2023-02-24T23:24:11.187Z,98769.63
2023-02-24T23:26:44.738Z,98773.97
2023-02-24T23:29:13.421Z,98775.72
2023-02-24T23:31:42.094Z,98780.06
2023-02-24T23:34:09.829Z,98773.09
2023-02-24T23:36:39.130Z,98780.94
2023-02-24T23:39:07.135Z,98783.56
2023-02-24T23:41:35.265Z,98791.41
2023-02-24T23:44:01.895Z,98781.81
2023-02-24T23:46:28.720Z,98794.91
2023-02-24T23:48:57.207Z,98789.63
2023-02-24T23:51:23.786Z,98806.19
2023-02-24T23:53:50.765Z,98800.94
2023-02-24T23:56:18.888Z,98796.56
2023-02-24T23:58:48.990Z,98792.22
